Time;durP1;ratioP1;P1;durP2;ratioP2;P2;SDS_P1;SDS_P2;PMS_P1;PMS_P2;Temp;Humidity;BMP_temperature;BMP_pressure;BME280_temperature;BME280_humidity;BME280_pressure;Samples;Min_cycle;Max_cycle;Signal;HPM_P1;HPM_P2
2022/09/11 00:00:53;;;;;;;0.67;0.67;;;;;;;15.31;100.00;96438.94;5012083;28;102298;-61
2022/09/11 00:03:22;;;;;;;1.37;0.70;;;;;;;15.35;100.00;96439.19;5009236;28;101820;-61
2022/09/11 00:05:51;;;;;;;1.07;0.60;;;;;;;15.32;100.00;96439.75;5009450;28;102543;-61
2022/09/11 00:08:20;;;;;;;0.87;0.50;;;;;;;15.30;100.00;96429.31;5007341;28;105413;-61
2022/09/11 00:10:48;;;;;;;0.97;0.50;;;;;;;15.33;100.00;96431.47;5008208;28;101970;-61
2022/09/11 00:13:20;;;;;;;0.80;0.60;;;;;;;15.30;100.00;96436.53;5009479;28;103483;-61
2022/09/11 00:15:48;;;;;;;1.53;0.60;;;;;;;15.28;100.00;96439.50;5012211;28;102575;-61
2022/09/11 00:18:20;;;;;;;0.80;0.40;;;;;;;15.25;100.00;96441.91;5011270;28;101843;-61
2022/09/11 00:20:52;;;;;;;0.83;0.60;;;;;;;15.03;100.00;96444.19;5012382;28;104293;-61
2022/09/11 00:23:20;;;;;;;0.50;0.50;;;;;;;14.57;100.00;96448.19;5015460;28;103431;-61
2022/09/11 00:25:48;;;;;;;1.50;0.60;;;;;;;14.24;100.00;96464.88;5012636;28;102917;-61
2022/09/11 00:28:18;;;;;;;1.43;0.60;;;;;;;14.19;100.00;96463.00;5010471;28;105759;-61
2022/09/11 00:30:45;;;;;;;0.70;0.60;;;;;;;14.08;100.00;96455.25;5011195;28;102295;-61
2022/09/11 00:33:13;;;;;;;1.73;0.80;;;;;;;13.94;100.00;96454.19;5010760;28;105331;-61
2022/09/11 00:35:41;;;;;;;0.67;0.60;;;;;;;13.99;100.00;96443.47;5010518;28;105750;-61
2022/09/11 00:38:10;;;;;;;1.30;0.80;;;;;;;13.96;100.00;96441.34;5012503;28;101854;-61
2022/09/11 00:40:45;;;;;;;1.63;0.70;;;;;;;13.93;100.00;96441.88;5010824;28;105299;-61
2022/09/11 00:43:15;;;;;;;1.53;0.97;;;;;;;13.83;100.00;96439.22;5011493;28;102644;-61
2022/09/11 00:45:43;;;;;;;1.83;0.80;;;;;;;13.84;100.00;96443.53;5015566;28;101852;-61
2022/09/11 00:48:13;;;;;;;1.00;0.80;;;;;;;13.84;100.00;96438.97;5009657;28;105443;-61
2022/09/11 00:50:44;;;;;;;0.70;0.60;;;;;;;13.86;100.00;96433.34;5010711;28;102024;-61
2022/09/11 00:53:16;;;;;;;0.93;0.70;;;;;;;13.86;100.00;96436.03;5010861;28;105300;-61
2022/09/11 00:55:49;;;;;;;1.13;0.63;;;;;;;13.87;100.00;96440.28;5009914;28;105780;-61
2022/09/11 00:58:20;;;;;;;1.20;0.70;;;;;;;13.80;100.00;96435.22;5010634;28;101872;-60
2022/09/11 01:00:48;;;;;;;2.20;0.70;;;;;;;13.80;100.00;96437.09;5010596;28;104285;-61
2022/09/11 01:03:15;;;;;;;1.27;0.87;;;;;;;13.85;100.00;96440.56;5009929;28;105384;-61
2022/09/11 01:05:43;;;;;;;1.27;0.80;;;;;;;13.82;100.00;96435.75;5010478;28;101888;-61
2022/09/11 01:08:13;;;;;;;1.77;0.80;;;;;;;13.81;100.00;96436.03;5013218;28;105635;-61
2022/09/11 01:10:50;;;;;;;1.60;1.10;;;;;;;13.83;100.00;96439.22;5011671;28;101888;-61
2022/09/11 01:13:28;;;;;;;0.73;0.73;;;;;;;13.83;100.00;96439.22;5010341;28;105205;-61
2022/09/11 01:16:03;;;;;;;1.37;0.87;;;;;;;13.81;100.00;96444.03;5009708;28;105401;-61
2022/09/11 01:18:34;;;;;;;1.77;0.70;;;;;;;13.84;100.00;96438.19;5010320;28;101977;-61
2022/09/11 01:21:24;;;;;;;2.07;0.90;;;;;;;13.87;100.00;96438.44;5010377;28;105213;-61
2022/09/11 01:24:31;;;;;;;4.60;0.80;;;;;;;13.85;100.00;96439.78;5011107;28;102788;-61
2022/09/11 01:27:17;;;;;;;1.30;0.80;;;;;;;13.86;100.00;96434.16;5011209;28;101983;-61
2022/09/11 01:29:52;;;;;;;1.53;0.70;;;;;;;13.90;100.00;96437.09;5010063;28;104959;-61
2022/09/11 01:32:23;;;;;;;0.70;0.70;;;;;;;13.93;100.00;96433.88;5012897;28;101905;-61
2022/09/11 01:34:58;;;;;;;0.70;0.70;;;;;;;13.95;100.00;96429.84;5010196;28;105469;-61
2022/09/11 01:37:34;;;;;;;0.60;0.60;;;;;;;13.87;100.00;96433.09;5009419;28;105804;-61
2022/09/11 01:40:05;;;;;;;0.50;0.50;;;;;;;13.88;100.00;96429.34;5009625;28;102008;-61
2022/09/11 01:42:38;;;;;;;0.60;0.60;;;;;;;13.94;100.00;96427.44;5009709;28;105075;-61
2022/09/11 01:45:07;;;;;;;0.73;0.73;;;;;;;13.96;100.00;96430.66;5009440;28;105273;-61
2022/09/11 01:47:36;;;;;;;2.20;0.80;;;;;;;13.94;100.00;96427.44;5009606;28;101906;-61
2022/09/11 01:50:08;;;;;;;1.57;0.80;;;;;;;13.90;100.00;96429.84;5010052;28;105234;-61
2022/09/11 01:52:44;;;;;;;1.13;0.70;;;;;;;13.80;100.00;96432.53;5012588;28;105114;-61
2022/09/11 01:55:15;;;;;;;2.37;0.93;;;;;;;13.72;100.00;96433.09;5011013;28;102303;-61
2022/09/11 01:57:45;;;;;;;1.30;0.90;;;;;;;13.62;100.00;96435.78;5010718;28;102621;-61
2022/09/11 02:00:15;;;;;;;1.00;1.00;;;;;;;13.63;100.00;96437.38;5009830;28;101892;-61
2022/09/11 02:02:58;;;;;;;0.80;0.80;;;;;;;13.58;100.00;96440.03;5009708;28;105049;-61
2022/09/11 02:05:29;;;;;;;3.90;1.00;;;;;;;13.60;100.00;96442.44;5009080;28;105373;-61
2022/09/11 02:08:00;;;;;;;0.70;0.70;;;;;;;13.62;100.00;96434.97;5009595;28;101819;-61
2022/09/11 02:10:33;;;;;;;2.20;0.90;;;;;;;13.55;100.00;96432.56;5009494;28;103411;-61
2022/09/11 02:13:07;;;;;;;4.00;1.17;;;;;;;13.62;100.00;96430.44;5010356;28;103127;-61
2022/09/11 02:15:43;;;;;;;1.43;1.00;;;;;;;13.64;100.00;96422.97;5012983;28;101883;-61
2022/09/11 02:18:18;;;;;;;1.80;1.20;;;;;;;13.64;100.00;96419.47;5008593;28;105435;-61
2022/09/11 02:20:46;;;;;;;0.90;0.90;;;;;;;13.61;100.00;96425.34;5009580;28;101835;-61
2022/09/11 02:23:14;;;;;;;1.00;0.80;;;;;;;13.62;100.00;96419.72;5009078;28;105093;-61
2022/09/11 02:25:42;;;;;;;1.83;0.90;;;;;;;13.68;100.00;96405.28;5008472;28;105574;-61
2022/09/11 02:28:10;;;;;;;1.60;0.80;;;;;;;13.73;100.00;96418.66;5009333;28;101909;-61
2022/09/11 02:30:39;;;;;;;1.07;0.90;;;;;;;13.70;100.00;96426.41;5009584;28;105175;-61
2022/09/11 02:33:27;;;;;;;1.60;0.90;;;;;;;13.75;100.00;96413.06;5008615;28;104060;-61
2022/09/11 02:36:05;;;;;;;0.90;0.90;;;;;;;13.80;100.00;96410.38;5008594;28;102164;-61
2022/09/11 02:38:45;;;;;;;0.90;0.90;;;;;;;13.83;100.00;96410.63;5012004;28;105550;-61
2022/09/11 02:41:18;;;;;;;1.03;0.70;;;;;;;13.83;100.00;96413.31;5010582;28;101700;-61
2022/09/11 02:43:55;;;;;;;1.73;0.80;;;;;;;13.81;100.00;96407.44;5009162;28;104916;-61
2022/09/11 02:46:45;;;;;;;1.60;0.60;;;;;;;13.83;100.00;96418.66;5008670;28;104171;-61
2022/09/11 02:49:24;;;;;;;0.70;0.70;;;;;;;13.89;100.00;96414.13;5008041;28;101923;-61
2022/09/11 02:52:02;;;;;;;1.90;1.00;;;;;;;13.85;100.00;96424.50;5010494;28;102329;-61
2022/09/11 02:54:40;;;;;;;0.80;0.70;;;;;;;13.85;100.00;96423.72;5008297;28;105806;-61
2022/09/11 02:57:14;;;;;;;2.17;0.80;;;;;;;13.83;100.00;96412.50;5008680;28;101788;-61
2022/09/11 02:59:46;;;;;;;1.23;0.90;;;;;;;13.85;100.00;96418.38;5009085;28;105648;-61
2022/09/11 03:02:15;;;;;;;2.87;0.80;;;;;;;13.84;100.00;96414.13;5011680;28;105481;-61
2022/09/11 03:04:42;;;;;;;1.83;0.83;;;;;;;13.83;100.00;96418.66;5008785;28;105604;-61
2022/09/11 03:07:09;;;;;;;0.73;0.70;;;;;;;13.80;100.00;96418.38;5007954;28;105567;-61
2022/09/11 03:09:38;;;;;;;2.40;0.80;;;;;;;13.83;100.00;96417.84;5008615;28;101942;-61
2022/09/11 03:12:11;;;;;;;1.63;0.80;;;;;;;13.75;100.00;96421.06;5008806;28;103882;-61
2022/09/11 03:14:38;;;;;;;2.00;1.00;;;;;;;13.72;100.00;96426.94;5007842;28;105641;-61
2022/09/11 03:17:06;;;;;;;2.17;0.73;;;;;;;13.70;100.00;96418.41;5008626;28;101973;-61
2022/09/11 03:19:36;;;;;;;3.20;0.97;;;;;;;13.66;100.00;96420.81;5008511;28;104762;-61
2022/09/11 03:22:04;;;;;;;2.00;1.03;;;;;;;13.68;100.00;96418.66;5007926;28;105072;-61
2022/09/11 03:24:31;;;;;;;1.77;0.80;;;;;;;13.65;100.00;96410.38;5011608;28;102033;-61
2022/09/11 03:26:59;;;;;;;1.33;0.87;;;;;;;13.67;100.00;96410.91;5007933;28;105325;-61
2022/09/11 03:29:27;;;;;;;1.57;0.90;;;;;;;13.67;100.00;96406.38;5008636;28;101885;-61
2022/09/11 03:31:57;;;;;;;0.90;0.70;;;;;;;13.67;100.00;96408.22;5008386;28;105867;-61
2022/09/11 03:34:24;;;;;;;1.03;0.80;;;;;;;13.64;100.00;96409.59;5009309;28;102495;-61
2022/09/11 03:36:53;;;;;;;0.60;0.60;;;;;;;13.65;100.00;96405.84;5008049;28;101882;-61
2022/09/11 03:39:20;;;;;;;2.20;0.73;;;;;;;13.69;100.00;96409.56;5008540;28;104041;-61
2022/09/11 03:41:48;;;;;;;1.10;0.70;;;;;;;13.69;100.00;96403.44;5007746;28;104121;-61
2022/09/11 03:44:14;;;;;;;1.00;0.90;;;;;;;13.69;100.00;96411.47;5013092;28;101851;-61
2022/09/11 03:46:41;;;;;;;1.50;0.70;;;;;;;13.69;100.00;96404.22;5007795;28;105513;-61
2022/09/11 03:49:09;;;;;;;0.73;0.70;;;;;;;13.70;100.00;96405.84;5010287;28;102073;-61
2022/09/11 03:51:35;;;;;;;1.80;0.60;;;;;;;13.69;100.00;96400.75;5011696;28;104777;-61
2022/09/11 03:54:05;;;;;;;1.07;0.90;;;;;;;13.70;100.00;96405.03;5011234;28;105105;-61
2022/09/11 03:56:32;;;;;;;0.93;0.70;;;;;;;13.69;100.00;96406.91;5011765;28;101984;-61
2022/09/11 03:59:00;;;;;;;2.40;0.80;;;;;;;13.69;100.00;96406.91;5011512;28;104825;-61
2022/09/11 04:01:28;;;;;;;0.80;0.80;;;;;;;13.70;100.00;96416.53;5011005;28;105074;-61
2022/09/11 04:03:56;;;;;;;0.80;0.80;;;;;;;13.69;100.00;96417.59;5011477;28;101976;-61
2022/09/11 04:06:29;;;;;;;0.67;0.67;;;;;;;13.73;100.00;96415.97;5014459;28;104757;-61
2022/09/11 04:08:57;;;;;;;0.87;0.70;;;;;;;13.75;100.00;96419.22;5011420;28;101913;-61
2022/09/11 04:11:26;;;;;;;1.97;0.77;;;;;;;13.69;100.00;96412.25;5011459;28;105845;-61
2022/09/11 04:13:55;;;;;;;4.10;0.93;;;;;;;13.70;100.00;96407.72;5012270;28;102811;-61
2022/09/11 04:16:24;;;;;;;2.63;0.80;;;;;;;13.72;100.00;96410.91;5011351;28;101973;-61
2022/09/11 04:18:54;;;;;;;1.57;0.80;;;;;;;13.74;100.00;96408.78;5011510;28;104789;-61
2022/09/11 04:21:23;;;;;;;1.50;0.80;;;;;;;13.70;100.00;96413.06;5010606;28;105331;-61
2022/09/11 04:23:55;;;;;;;1.10;0.67;;;;;;;13.70;100.00;96410.38;5011391;28;102069;-61
2022/09/11 04:26:25;;;;;;;0.97;0.60;;;;;;;13.72;100.00;96408.22;5012667;28;102248;-61
2022/09/11 04:28:58;;;;;;;1.03;0.80;;;;;;;13.69;100.00;96408.78;5014046;28;105393;-61
2022/09/11 04:31:26;;;;;;;1.50;0.63;;;;;;;13.66;100.00;96411.97;5011207;28;105264;-61
2022/09/11 04:33:55;;;;;;;1.27;0.73;;;;;;;13.68;100.00;96407.97;5010543;28;105763;-61
2022/09/11 04:36:23;;;;;;;1.57;0.60;;;;;;;13.69;100.00;96411.47;5010635;28;101999;-61
2022/09/11 04:38:54;;;;;;;2.70;0.80;;;;;;;13.74;100.00;96409.56;5012349;28;102406;-61
2022/09/11 04:41:22;;;;;;;2.47;0.90;;;;;;;13.74;100.00;96400.75;5010554;28;105103;-61
2022/09/11 04:43:54;;;;;;;1.30;0.80;;;;;;;13.74;100.00;96408.78;5010831;28;101972;-61
2022/09/11 04:46:22;;;;;;;1.10;0.70;;;;;;;13.74;100.00;96395.41;5010749;28;104943;-61
2022/09/11 04:48:52;;;;;;;1.97;0.90;;;;;;;13.77;100.00;96400.22;5011531;28;102609;-61
2022/09/11 04:51:24;;;;;;;0.80;0.70;;;;;;;13.75;100.00;96403.16;5014261;28;101727;-61
2022/09/11 04:53:56;;;;;;;1.83;1.10;;;;;;;13.74;100.00;96401.53;5010243;28;105140;-61
2022/09/11 04:56:25;;;;;;;1.60;0.70;;;;;;;13.78;100.00;96405.28;5010645;28;101860;-61
2022/09/11 04:58:59;;;;;;;0.90;0.80;;;;;;;13.81;100.00;96403.94;5010202;28;105215;-61
2022/09/11 05:01:30;;;;;;;0.87;0.80;;;;;;;13.78;100.00;96401.81;5010081;28;104947;-61
2022/09/11 05:04:00;;;;;;;1.80;0.93;;;;;;;13.78;100.00;96401.81;5010516;28;101835;-61
2022/09/11 05:06:29;;;;;;;0.90;0.70;;;;;;;13.80;100.00;96403.13;5010687;28;104354;-61
2022/09/11 05:09:00;;;;;;;0.70;0.70;;;;;;;13.79;100.00;96398.88;5009562;28;104037;-61
2022/09/11 05:11:28;;;;;;;1.13;0.90;;;;;;;13.80;100.00;96400.47;5010667;28;101858;-61
2022/09/11 05:13:59;;;;;;;1.50;0.70;;;;;;;13.78;100.00;96399.13;5013143;28;104820;-61
2022/09/11 05:16:30;;;;;;;0.73;0.73;;;;;;;13.79;100.00;96403.44;5010567;28;101809;-61
2022/09/11 05:18:58;;;;;;;0.70;0.70;;;;;;;13.81;100.00;96410.13;5010150;28;105282;-61
2022/09/11 05:21:27;;;;;;;0.83;0.80;;;;;;;13.82;100.00;96408.22;5009739;28;105688;-61
2022/09/11 05:23:55;;;;;;;1.47;0.70;;;;;;;13.87;100.00;96411.69;5010375;28;101837;-61
2022/09/11 05:26:25;;;;;;;1.37;0.70;;;;;;;13.91;100.00;96411.97;5010443;28;104852;-61
2022/09/11 05:28:54;;;;;;;0.97;0.77;;;;;;;13.92;100.00;96418.91;5009519;28;105246;-61
2022/09/11 05:31:24;;;;;;;0.63;0.63;;;;;;;13.95;100.00;96421.06;5010366;28;102175;-61
2022/09/11 05:33:52;;;;;;;1.03;0.77;;;;;;;13.95;100.00;96416.47;5010138;28;104958;-61
2022/09/11 05:36:19;;;;;;;1.63;0.70;;;;;;;13.96;100.00;96425.31;5013017;28;105640;-61
2022/09/11 05:38:46;;;;;;;0.83;0.60;;;;;;;13.98;100.00;96423.16;5011703;28;102767;-61
2022/09/11 05:41:14;;;;;;;0.70;0.70;;;;;;;13.99;100.00;96420.22;5010986;28;102583;-61
2022/09/11 05:43:42;;;;;;;0.57;0.57;;;;;;;13.99;100.00;96425.56;5009832;28;102025;-61
2022/09/11 05:46:12;;;;;;;2.10;0.80;;;;;;;14.02;100.00;96424.22;5009960;28;105705;-61
2022/09/11 05:48:41;;;;;;;0.70;0.70;;;;;;;14.04;100.00;96428.25;5008977;28;105938;-61
2022/09/11 05:51:14;;;;;;;1.03;0.70;;;;;;;14.06;100.00;96430.66;5009911;28;101989;-61
2022/09/11 05:53:41;;;;;;;1.47;0.83;;;;;;;14.08;100.00;96431.16;5009901;28;105279;-61
2022/09/11 05:56:14;;;;;;;0.70;0.70;;;;;;;14.07;100.00;96429.56;5012388;28;105584;-61
2022/09/11 05:58:42;;;;;;;0.70;0.70;;;;;;;14.11;100.00;96433.31;5009910;28;104785;-61
2022/09/11 06:01:12;;;;;;;0.80;0.80;;;;;;;14.12;100.00;96419.66;5009100;28;105126;-61
2022/09/11 06:03:42;;;;;;;0.70;0.70;;;;;;;14.14;100.00;96427.41;5009556;28;101926;-60
2022/09/11 06:06:12;;;;;;;0.60;0.50;;;;;;;14.18;100.00;96429.25;5009732;28;105438;-61
2022/09/11 06:08:42;;;;;;;0.70;0.67;;;;;;;14.21;100.00;96428.75;5010184;28;102884;-61
2022/09/11 06:11:09;;;;;;;1.53;0.60;;;;;;;14.25;100.00;96423.66;5008362;28;102035;-61
2022/09/11 06:13:39;;;;;;;2.93;0.80;;;;;;;14.21;100.00;96425.28;5009651;28;104820;-61
2022/09/11 06:16:09;;;;;;;0.87;0.80;;;;;;;14.27;100.00;96434.88;5008740;28;105196;-61
2022/09/11 06:18:36;;;;;;;2.43;0.60;;;;;;;14.32;100.00;96429.53;5012765;28;102396;-61
2022/09/11 06:21:08;;;;;;;1.07;0.60;;;;;;;14.38;100.00;96431.13;5008729;28;105591;-61
2022/09/11 06:23:42;;;;;;;1.17;0.70;;;;;;;14.46;100.00;96434.03;5008996;28;102029;-61
2022/09/11 06:26:13;;;;;;;1.13;0.87;;;;;;;14.51;100.00;96441.25;5009369;28;104542;-61
2022/09/11 06:28:42;;;;;;;1.53;0.90;;;;;;;14.61;100.00;96438.53;5008680;28;105724;-61
2022/09/11 06:31:15;;;;;;;0.70;0.70;;;;;;;14.64;100.00;96437.97;5008982;28;101933;-61
2022/09/11 06:33:43;;;;;;;1.00;0.67;;;;;;;14.74;100.00;96440.59;5009362;28;103996;-61
2022/09/11 06:36:13;;;;;;;2.07;0.80;;;;;;;14.79;100.00;96440.59;5008442;28;105850;-61
2022/09/11 06:38:41;;;;;;;0.90;0.80;;;;;;;14.84;100.00;96440.56;5009084;28;102029;-61
2022/09/11 06:41:15;;;;;;;1.10;0.93;;;;;;;14.89;100.00;96440.53;5011989;28;104716;-61
2022/09/11 06:43:43;;;;;;;1.37;0.93;;;;;;;14.93;100.00;96441.59;5010224;28;101769;-61
2022/09/11 06:46:13;;;;;;;0.93;0.60;;;;;;;14.91;100.00;96435.69;5009126;28;104599;-61
2022/09/11 06:48:41;;;;;;;0.87;0.80;;;;;;;14.91;100.00;96438.38;5007845;28;105321;-61
2022/09/11 06:51:13;;;;;;;2.07;0.60;;;;;;;14.90;100.00;96439.47;5009059;28;101876;-61
2022/09/11 06:53:41;;;;;;;1.37;0.80;;;;;;;14.89;100.00;96445.91;5008750;28;105220;-61
2022/09/11 06:56:13;;;;;;;1.53;0.70;;;;;;;14.89;100.00;96440.53;5008387;28;106063;-61
2022/09/11 06:58:41;;;;;;;1.90;0.70;;;;;;;14.88;100.00;96444.31;5008976;28;101882;-61
2022/09/11 07:01:10;;;;;;;1.10;0.83;;;;;;;14.93;100.00;96431.66;5008480;28;105023;-61
2022/09/11 07:03:43;;;;;;;0.70;0.70;;;;;;;14.93;100.00;96442.38;5011437;28;105319;-60
2022/09/11 07:06:12;;;;;;;1.90;1.20;;;;;;;14.94;100.00;96441.31;5008721;28;105588;-60
2022/09/11 07:08:42;;;;;;;1.10;1.00;;;;;;;15.00;100.00;96444.75;5007944;28;105414;-61
2022/09/11 07:11:10;;;;;;;1.47;1.00;;;;;;;15.05;100.00;96439.38;5008639;28;101985;-61
2022/09/11 07:13:38;;;;;;;1.83;0.90;;;;;;;15.11;100.00;96443.63;5011096;28;105589;-60
2022/09/11 07:16:07;;;;;;;1.30;1.10;;;;;;;15.16;100.00;96451.63;5007982;28;105396;-61
2022/09/11 07:18:38;;;;;;;1.20;1.10;;;;;;;15.18;100.00;96458.31;5008861;28;102314;-60
2022/09/11 07:21:13;;;;;;;1.70;1.10;;;;;;;15.21;100.00;96454.28;5008709;28;104227;-61
2022/09/11 07:23:42;;;;;;;1.30;1.20;;;;;;;15.25;100.00;96449.94;5011604;28;104688;-60
2022/09/11 07:26:12;;;;;;;1.30;0.77;;;;;;;15.33;100.00;96457.44;5015563;28;101955;-61
2022/09/11 07:28:40;;;;;;;0.90;0.90;;;;;;;15.40;100.00;96449.88;5010978;28;105855;-61
2022/09/11 07:31:10;;;;;;;2.00;0.87;;;;;;;15.48;100.00;96454.66;5011993;28;101977;-61
2022/09/11 07:33:38;;;;;;;2.00;1.10;;;;;;;15.49;100.00;96454.38;5012250;28;105505;-61
2022/09/11 07:36:10;;;;;;;0.70;0.70;;;;;;;15.49;100.00;96456.28;5012845;28;102758;-61
2022/09/11 07:38:42;;;;;;;1.23;0.80;;;;;;;15.50;100.00;96458.69;5011871;28;101848;-61
2022/09/11 07:41:12;;;;;;;0.70;0.70;;;;;;;15.52;100.00;96455.69;5011761;28;104940;-61
2022/09/11 07:43:44;;;;;;;1.57;0.90;;;;;;;15.57;100.00;96472.56;5011169;28;104662;-61
2022/09/11 07:46:12;;;;;;;0.77;0.70;;;;;;;15.62;100.00;96458.31;5012073;28;101980;-61
2022/09/11 07:48:41;;;;;;;1.13;0.83;;;;;;;15.67;100.00;96474.34;5014121;28;105650;-61
2022/09/11 07:51:11;;;;;;;0.97;0.90;;;;;;;15.72;100.00;96471.63;5011718;28;101969;-61
2022/09/11 07:53:39;;;;;;;0.80;0.80;;;;;;;15.72;100.00;96463.59;5011985;28;105223;-61
2022/09/11 07:56:10;;;;;;;1.97;1.27;;;;;;;15.73;100.00;96489.31;5010965;28;105878;-61
2022/09/11 07:58:39;;;;;;;2.13;0.90;;;;;;;15.76;100.00;96488.78;5011643;28;101858;-61
2022/09/11 08:01:07;;;;;;;0.80;0.80;;;;;;;15.81;100.00;96480.69;5011893;28;105373;-61
2022/09/11 08:03:36;;;;;;;0.90;0.80;;;;;;;15.78;100.00;96479.38;5010749;28;105150;-61
2022/09/11 08:06:06;;;;;;;1.00;0.80;;;;;;;15.81;100.00;96486.06;5011474;28;101963;-61
2022/09/11 08:08:36;;;;;;;1.27;0.80;;;;;;;15.82;100.00;96493.00;5014419;28;104625;-60
2022/09/11 08:11:05;;;;;;;3.20;0.90;;;;;;;15.80;100.00;96484.44;5011457;28;101895;-61
2022/09/11 08:13:34;;;;;;;3.20;0.90;;;;;;;15.94;100.00;96485.41;5011062;28;104754;-61
2022/09/11 08:16:03;;;;;;;1.57;0.90;;;;;;;16.04;100.00;96486.13;5010809;28;105580;-60
2022/09/11 08:18:31;;;;;;;1.13;0.80;;;;;;;15.95;100.00;96495.84;5014130;28;102178;-61
2022/09/11 08:21:04;;;;;;;1.90;1.20;;;;;;;16.01;100.00;96486.66;5021214;28;104804;-61
2022/09/11 08:23:31;;;;;;;1.80;1.17;;;;;;;16.00;100.00;96493.13;5022238;28;105240;-61
2022/09/11 08:26:05;;;;;;;0.80;0.80;;;;;;;16.02;100.00;96490.94;5020143;28;101963;-63
2022/09/11 08:28:36;;;;;;;1.47;0.70;;;;;;;16.06;100.00;96500.03;5020142;28;104414;-61
2022/09/11 08:31:04;;;;;;;1.27;0.90;;;;;;;16.04;100.00;96498.72;5022414;28;105890;-61
2022/09/11 08:33:32;;;;;;;3.70;1.10;;;;;;;16.08;100.00;96497.88;5015643;28;105808;-60
2022/09/11 08:36:00;;;;;;;1.87;1.40;;;;;;;16.10;100.00;96511.00;5010385;28;105031;-61
2022/09/11 08:38:28;;;;;;;2.33;1.10;;;;;;;16.11;100.00;96510.72;5012044;28;101715;-62
2022/09/11 08:40:57;;;;;;;1.47;1.10;;;;;;;16.16;100.00;96504.50;5011031;28;104775;-60
2022/09/11 08:43:29;;;;;;;1.07;0.70;;;;;;;16.13;100.00;96510.47;5011586;28;102558;-60
2022/09/11 08:46:03;;;;;;;2.17;1.00;;;;;;;16.14;100.00;96502.09;5010821;28;101927;-60
2022/09/11 08:48:38;;;;;;;1.13;1.10;;;;;;;16.35;100.00;96516.16;5010371;28;104987;-60
2022/09/11 08:51:05;;;;;;;1.07;0.80;;;;;;;16.45;100.00;96510.72;5010158;28;105611;-60
2022/09/11 08:53:33;;;;;;;2.33;0.90;;;;;;;16.51;100.00;96506.91;5014105;28;102066;-60
2022/09/11 08:56:08;;;;;;;0.90;0.90;;;;;;;16.53;100.00;96510.09;5009813;28;105695;-60
2022/09/11 08:58:47;;;;;;;1.10;1.00;;;;;;;16.46;100.00;96510.41;5010849;28;101759;-60
2022/09/11 09:01:27;;;;;;;1.00;0.97;;;;;;;16.75;100.00;96515.75;5010443;28;105215;-59
2022/09/11 09:04:17;;;;;;;1.73;1.40;;;;;;;16.80;100.00;96513.00;5010132;28;105679;-60
2022/09/11 09:06:54;;;;;;;1.00;1.00;;;;;;;16.79;100.00;96509.50;5010686;28;102455;-59
2022/09/11 09:09:28;;;;;;;1.20;1.10;;;;;;;16.97;100.00;96508.78;5011928;28;102332;-60
2022/09/11 09:12:05;;;;;;;1.17;0.90;;;;;;;17.00;100.00;96518.16;5009530;28;105109;-60
2022/09/11 09:14:50;;;;;;;1.13;1.03;;;;;;;16.96;100.00;96511.75;5010368;28;101859;-61
2022/09/11 09:17:25;;;;;;;1.53;1.40;;;;;;;17.02;100.00;96503.34;4996799;28;105196;-62
2022/09/11 09:19:59;;;;;;;1.23;1.13;;;;;;;16.92;100.00;96516.09;5010482;28;101813;-60
2022/09/11 09:22:38;;;;;;;1.37;0.90;;;;;;;17.04;100.00;96521.84;5010481;28;105079;-61
2022/09/11 09:25:10;;;;;;;2.07;1.40;;;;;;;17.12;100.00;96518.53;5010853;28;102764;-60
2022/09/11 09:27:44;;;;;;;2.50;1.63;;;;;;;17.06;100.00;96517.78;5010404;28;101786;-60
2022/09/11 09:30:16;;;;;;;2.60;1.53;;;;;;;17.22;100.00;96513.03;5010121;28;105730;-59
2022/09/11 09:32:51;;;;;;;2.40;1.30;;;;;;;17.32;100.00;96512.88;5009374;28;105575;-60
2022/09/11 09:35:23;;;;;;;4.67;2.20;;;;;;;17.38;100.00;96517.94;5010231;28;101762;-61
2022/09/11 09:37:53;;;;;;;1.03;1.03;;;;;;;17.36;100.00;96519.28;5010152;28;104977;-61
2022/09/11 09:40:20;;;;;;;1.30;1.20;;;;;;;17.15;100.00;96523.31;5012750;28;104608;-60
2022/09/11 09:43:16;;;;;;;1.53;1.10;;;;;;;17.21;100.00;96535.59;5009932;28;104854;-60
2022/09/11 09:45:51;;;;;;;1.27;1.10;;;;;;;17.26;100.00;96508.66;5014727;28;105543;-60
2022/09/11 09:48:19;;;;;;;2.10;1.10;;;;;;;17.43;100.00;96511.72;5017201;28;101868;-60
2022/09/11 09:50:48;;;;;;;1.00;1.00;;;;;;;17.45;100.00;96517.59;5010574;28;102961;-61
2022/09/11 09:53:26;;;;;;;1.23;1.03;;;;;;;17.44;100.00;96518.69;5016984;28;105343;-60
2022/09/11 09:55:55;;;;;;;1.87;1.40;;;;;;;17.37;100.00;96515.50;5010825;28;101849;-60
2022/09/11 09:58:26;;;;;;;1.33;1.10;;;;;;;17.32;100.00;96519.06;5009413;28;105591;-60
2022/09/11 10:00:52;;;;;;;1.80;1.30;;;;;;;17.40;100.00;96521.16;5010450;28;102497;-67
2022/09/11 10:03:23;;;;;;;1.30;1.20;;;;;;;17.53;100.00;96525.00;5014597;28;101973;-60
2022/09/11 10:05:53;;;;;;;1.40;1.30;;;;;;;17.45;100.00;96522.97;5010519;28;102849;-60
2022/09/11 10:08:28;;;;;;;1.07;1.00;;;;;;;17.79;100.00;96526.22;5009198;28;101843;-60
2022/09/11 10:10:57;;;;;;;2.73;1.60;;;;;;;17.56;100.00;96519.03;5009839;28;105064;-60
2022/09/11 10:13:27;;;;;;;1.40;1.40;;;;;;;17.31;100.00;96522.84;5009792;28;102882;-60
2022/09/11 10:15:56;;;;;;;3.03;1.57;;;;;;;17.21;100.00;96514.09;5010710;28;101894;-60
2022/09/11 10:18:36;;;;;;;1.67;1.67;;;;;;;17.14;100.00;96535.16;5010906;28;102313;-63
2022/09/11 10:21:22;;;;;;;2.30;1.40;;;;;;;17.02;100.00;96518.66;5009967;28;105064;-61
2022/09/11 10:23:53;;;;;;;1.47;1.37;;;;;;;17.09;100.00;96527.16;5013649;28;102013;-60
2022/09/11 10:26:26;;;;;;;1.40;1.40;;;;;;;17.13;100.00;96523.63;5008527;28;106839;-60
2022/09/11 10:28:56;;;;;;;2.10;1.97;;;;;;;17.14;100.00;96524.41;5010490;28;101866;-60
2022/09/11 10:31:25;;;;;;;2.30;1.70;;;;;;;17.02;100.00;96529.41;5009990;28;102471;-60
2022/09/11 10:33:56;;;;;;;2.07;1.90;;;;;;;17.11;100.00;96533.84;5010083;28;103004;-60
2022/09/11 10:36:25;;;;;;;1.80;1.70;;;;;;;17.08;100.00;96531.75;5009293;28;101677;-60
2022/09/11 10:38:53;;;;;;;1.60;1.50;;;;;;;17.11;100.00;96535.75;5010358;28;102813;-60
2022/09/11 10:41:22;;;;;;;3.03;1.43;;;;;;;17.00;100.00;96540.44;5008470;28;105923;-60
2022/09/11 10:43:54;;;;;;;2.00;1.90;;;;;;;16.86;100.00;96539.53;5009096;28;101882;-61
2022/09/11 10:46:33;;;;;;;3.37;1.80;;;;;;;16.66;100.00;96552.38;5013491;28;102279;-60
2022/09/11 10:49:15;;;;;;;2.77;2.53;;;;;;;16.41;100.00;96556.09;5009769;28;101968;-60
2022/09/11 10:51:57;;;;;;;4.10;3.67;;;;;;;16.21;100.00;96558.13;5009541;28;104346;-60
2022/09/11 10:54:38;;;;;;;3.80;3.30;;;;;;;16.05;100.00;96573.56;5009878;28;102657;-60
2022/09/11 10:57:16;;;;;;;2.80;2.60;;;;;;;15.77;100.00;96560.09;5009886;28;101759;-60
2022/09/11 10:59:54;;;;;;;3.10;2.87;;;;;;;15.90;100.00;96564.81;5010255;28;102368;-61
2022/09/11 11:02:30;;;;;;;3.20;2.87;;;;;;;15.94;100.00;96568.53;5009739;28;102778;-60
2022/09/11 11:05:03;;;;;;;3.40;3.07;;;;;;;15.97;100.00;96565.31;5008800;28;101796;-60
2022/09/11 11:07:47;;;;;;;3.43;3.17;;;;;;;16.07;100.00;96570.59;5008619;28;105700;-60
2022/09/11 11:10:31;;;;;;;3.33;3.03;;;;;;;15.97;100.00;96576.03;5012767;28;104200;-60
2022/09/11 11:13:12;;;;;;;4.13;2.90;;;;;;;16.00;100.00;96580.84;5008502;28;105767;-60
2022/09/11 11:15:52;;;;;;;5.30;3.07;;;;;;;16.11;100.00;96593.09;5009571;28;102684;-60
2022/09/11 11:18:32;;;;;;;3.43;3.13;;;;;;;16.19;100.00;96584.47;5009928;28;101903;-61
2022/09/11 11:21:13;;;;;;;3.47;3.17;;;;;;;16.22;100.00;96591.94;5015016;28;103049;-60
2022/09/11 11:23:58;;;;;;;3.47;3.17;;;;;;;16.15;100.00;96594.97;5013470;28;105333;-60
2022/09/11 11:26:51;;;;;;;3.33;3.07;;;;;;;16.15;100.00;96592.28;5009958;27;101883;-60
2022/09/11 11:29:33;;;;;;;4.77;3.50;;;;;;;16.17;100.00;96603.50;5005832;28;105380;-61
2022/09/11 11:32:27;;;;;;;3.30;3.10;;;;;;;16.28;100.00;96609.59;5009312;28;102717;-60
2022/09/11 11:35:12;;;;;;;4.90;3.87;;;;;;;16.30;100.00;96610.13;5013267;28;101715;-60
2022/09/11 11:37:43;;;;;;;4.10;3.80;;;;;;;16.46;100.00;96620.47;5009344;28;101677;-60